createdAt,value
2022-11-30T00:01:42.787Z,29.02
2022-11-30T00:04:11.356Z,29.67
2022-11-30T00:06:43.438Z,28.83
2022-11-30T00:09:12.015Z,30.60
2022-11-30T00:11:40.362Z,30.90
2022-11-30T00:14:08.977Z,27.90
2022-11-30T00:16:37.463Z,25.52
2022-11-30T00:19:07.264Z,29.25
2022-11-30T00:21:35.591Z,25.93
2022-11-30T00:24:04.026Z,26.15
2022-11-30T00:26:32.732Z,23.05
2022-11-30T00:29:01.231Z,27.98
2022-11-30T00:31:29.573Z,29.38
2022-11-30T00:33:58.213Z,29.63
2022-11-30T00:36:28.175Z,28.23
2022-11-30T00:38:57.378Z,30.52
2022-11-30T00:41:25.835Z,28.38
2022-11-30T00:43:54.188Z,28.88
2022-11-30T00:46:22.640Z,28.65
2022-11-30T00:48:51.124Z,29.58
2022-11-30T00:51:21.630Z,29.00
2022-11-30T00:53:51.416Z,29.35
2022-11-30T00:56:20.001Z,25.80
2022-11-30T00:58:48.568Z,23.25
2022-11-30T01:01:17.003Z,24.70
2022-11-30T01:03:45.795Z,27.50
2022-11-30T01:06:14.234Z,28.40
2022-11-30T01:08:42.703Z,27.50
2022-11-30T01:11:16.831Z,26.63
2022-11-30T01:13:45.293Z,26.10
2022-11-30T01:16:18.630Z,26.27
2022-11-30T01:18:48.453Z,27.42
2022-11-30T01:21:19.537Z,24.67
2022-11-30T01:23:48.772Z,24.80
2022-11-30T01:26:20.609Z,27.75
2022-11-30T01:28:52.904Z,29.33
2022-11-30T01:31:24.691Z,28.23
2022-11-30T01:33:55.537Z,21.90
2022-11-30T01:38:56.395Z,30.05
2022-11-30T01:41:29.174Z,21.83
2022-11-30T01:43:59.714Z,24.02
2022-11-30T01:46:36.210Z,22.27
2022-11-30T01:49:19.330Z,19.40
2022-11-30T01:51:58.151Z,21.20
2022-11-30T01:54:31.221Z,23.38
2022-11-30T01:57:06.401Z,23.60
2022-11-30T01:59:34.784Z,20.98
2022-11-30T02:02:02.977Z,19.58
2022-11-30T02:04:34.244Z,19.98
2022-11-30T02:07:04.824Z,24.25
2022-11-30T02:12:09.323Z,22.25
2022-11-30T02:14:43.683Z,19.83
2022-11-30T02:17:22.176Z,19.42
2022-11-30T02:20:36.832Z,21.80
2022-11-30T02:23:44.090Z,23.52
2022-11-30T02:26:35.482Z,29.92
2022-11-30T02:29:15.303Z,23.58
2022-11-30T02:31:56.390Z,19.27
2022-11-30T02:34:28.617Z,22.23
2022-11-30T02:36:58.803Z,20.25
2022-11-30T02:39:27.135Z,21.92
2022-11-30T02:41:55.364Z,20.58
2022-11-30T02:44:26.365Z,24.55
2022-11-30T02:47:13.470Z,20.02
2022-11-30T02:49:50.591Z,24.85
2022-11-30T02:52:20.925Z,22.02
2022-11-30T02:54:49.637Z,22.60
2022-11-30T02:57:18.008Z,20.25
2022-11-30T02:59:47.653Z,21.00
2022-11-30T03:02:15.921Z,20.95
2022-11-30T03:04:44.324Z,19.27
2022-11-30T03:07:12.722Z,20.90
2022-11-30T03:09:40.993Z,23.58
2022-11-30T03:12:09.334Z,20.42
2022-11-30T03:14:37.695Z,23.42
2022-11-30T03:17:07.540Z,20.98
2022-11-30T03:19:36.113Z,22.52
2022-11-30T03:22:04.381Z,22.80
2022-11-30T03:24:32.645Z,21.95
2022-11-30T03:27:00.879Z,23.85
2022-11-30T03:29:29.069Z,21.70
2022-11-30T03:31:57.304Z,21.88
2022-11-30T03:34:27.695Z,22.90
2022-11-30T03:36:56.365Z,18.73
2022-11-30T03:39:25.223Z,19.35
2022-11-30T03:41:53.742Z,18.58
2022-11-30T03:44:22.013Z,19.00
2022-11-30T03:46:50.452Z,20.13
2022-11-30T03:49:18.738Z,21.35
2022-11-30T03:51:48.318Z,17.30
2022-11-30T03:54:16.586Z,19.80
2022-11-30T03:56:44.804Z,19.20
2022-11-30T03:59:13.029Z,18.77
2022-11-30T04:01:41.965Z,19.13
2022-11-30T04:04:10.361Z,18.05
2022-11-30T04:06:38.578Z,18.40
2022-11-30T04:09:08.310Z,19.02
2022-11-30T04:11:36.930Z,17.73
2022-11-30T04:14:05.177Z,16.02
2022-11-30T04:16:33.741Z,20.60
2022-11-30T04:19:02.405Z,19.23
2022-11-30T04:21:30.823Z,19.95
2022-11-30T04:23:59.038Z,19.10
2022-11-30T04:26:28.724Z,17.42
2022-11-30T04:28:56.987Z,16.45
2022-11-30T04:31:25.338Z,16.33
2022-11-30T04:33:55.034Z,16.05
2022-11-30T04:36:23.449Z,15.77
2022-11-30T04:38:51.666Z,19.90
2022-11-30T04:41:19.910Z,19.60
2022-11-30T04:43:49.495Z,20.33
2022-11-30T04:46:17.786Z,19.38
2022-11-30T04:48:45.999Z,21.45
2022-11-30T04:51:14.263Z,26.45
2022-11-30T04:53:42.537Z,18.92
2022-11-30T04:56:12.962Z,23.05
2022-11-30T04:58:41.226Z,20.15
2022-11-30T05:01:10.894Z,19.55
2022-11-30T05:03:39.133Z,21.48
2022-11-30T05:06:07.853Z,13.70
2022-11-30T05:08:36.101Z,14.05
2022-11-30T05:11:04.390Z,14.43
2022-11-30T05:13:32.889Z,12.77
2022-11-30T05:16:01.168Z,15.88
2022-11-30T05:18:31.736Z,12.05
2022-11-30T05:21:00.130Z,13.07
2022-11-30T05:23:28.406Z,11.70
2022-11-30T05:25:56.800Z,11.00
2022-11-30T05:28:24.973Z,19.95
2022-11-30T05:30:53.148Z,13.98
2022-11-30T05:33:21.411Z,13.40
2022-11-30T05:35:51.000Z,17.52
2022-11-30T05:38:19.389Z,19.77
2022-11-30T05:40:47.791Z,21.20
2022-11-30T05:43:16.124Z,22.88
2022-11-30T05:45:44.330Z,25.02
2022-11-30T05:48:12.734Z,22.70
2022-11-30T05:50:40.933Z,23.58
2022-11-30T05:53:10.542Z,22.50
2022-11-30T05:55:39.243Z,28.33
2022-11-30T05:58:07.450Z,21.40
2022-11-30T06:00:35.639Z,32.25
2022-11-30T06:03:04.142Z,24.20
2022-11-30T06:05:35.576Z,23.00
2022-11-30T06:08:03.978Z,23.23
2022-11-30T06:10:33.518Z,22.10
2022-11-30T06:13:08.384Z,21.42
2022-11-30T06:15:37.902Z,21.13
2022-11-30T06:18:07.898Z,24.73
2022-11-30T06:20:36.516Z,21.65
2022-11-30T06:23:04.858Z,22.60
2022-11-30T06:25:34.685Z,19.45
2022-11-30T06:28:02.987Z,20.33
2022-11-30T06:30:31.301Z,23.65
2022-11-30T06:32:59.538Z,25.42
2022-11-30T06:35:27.866Z,22.92
2022-11-30T06:37:56.174Z,24.60
2022-11-30T06:40:24.552Z,23.88
2022-11-30T06:42:54.710Z,24.58
2022-11-30T06:45:22.915Z,23.73
2022-11-30T06:47:51.111Z,26.50
2022-11-30T06:50:19.638Z,25.08
2022-11-30T06:52:47.867Z,33.35
2022-11-30T06:55:16.285Z,25.38
2022-11-30T06:57:44.698Z,27.23
2022-11-30T07:00:16.380Z,24.40
2022-11-30T07:02:44.859Z,22.55
2022-11-30T07:05:13.050Z,24.45
2022-11-30T07:07:41.416Z,23.10
2022-11-30T07:10:13.760Z,26.95
2022-11-30T07:12:45.245Z,28.20
2022-11-30T07:15:14.880Z,24.98
2022-11-30T07:17:43.128Z,26.48
2022-11-30T07:20:11.812Z,26.73
2022-11-30T07:22:40.085Z,25.95
2022-11-30T07:25:27.651Z,24.15
2022-11-30T07:27:56.413Z,19.42
2022-11-30T07:30:26.099Z,22.58
2022-11-30T07:32:54.482Z,22.97
2022-11-30T07:35:22.933Z,22.02
2022-11-30T07:37:51.159Z,24.27
2022-11-30T07:40:19.457Z,23.05
2022-11-30T07:42:47.754Z,24.33
2022-11-30T07:45:16.162Z,20.40
2022-11-30T07:47:45.732Z,25.13
2022-11-30T07:50:13.978Z,21.98
2022-11-30T07:52:42.479Z,24.52
2022-11-30T07:55:11.149Z,26.92
2022-11-30T07:57:39.399Z,28.63
2022-11-30T08:00:10.258Z,21.85
2022-11-30T08:02:40.393Z,21.85
2022-11-30T08:05:12.148Z,24.02
2022-11-30T08:07:40.491Z,21.80
2022-11-30T08:10:10.717Z,22.45
2022-11-30T08:12:39.017Z,24.48
2022-11-30T08:15:19.762Z,21.70
2022-11-30T08:17:54.483Z,22.50
2022-11-30T08:20:24.284Z,23.52
2022-11-30T08:22:52.871Z,25.08
2022-11-30T08:25:21.106Z,25.30
2022-11-30T08:27:49.402Z,24.50
2022-11-30T08:30:18.220Z,26.95
2022-11-30T08:32:46.563Z,27.20
2022-11-30T08:35:14.984Z,25.65
2022-11-30T08:37:44.609Z,29.05
2022-11-30T08:40:13.689Z,31.63
2022-11-30T08:42:42.033Z,26.70
2022-11-30T08:45:11.502Z,24.73
2022-11-30T08:47:39.774Z,23.60
2022-11-30T08:50:09.307Z,25.90
2022-11-30T08:52:37.687Z,22.83
2022-11-30T08:55:09.592Z,26.83
2022-11-30T08:57:37.832Z,24.08
2022-11-30T09:00:08.150Z,25.30
2022-11-30T09:02:38.197Z,24.70
2022-11-30T09:05:07.375Z,31.05
2022-11-30T09:07:35.707Z,24.52
2022-11-30T09:10:04.180Z,21.33
2022-11-30T09:12:36.292Z,21.52
2022-11-30T09:15:05.472Z,22.27
2022-11-30T09:17:33.850Z,22.80
2022-11-30T09:20:02.714Z,23.75
2022-11-30T09:22:31.070Z,21.13
2022-11-30T09:24:59.379Z,20.80
2022-11-30T09:27:30.384Z,22.65
2022-11-30T09:30:00.174Z,22.08
2022-11-30T09:32:29.827Z,21.10
2022-11-30T09:34:58.212Z,22.05
2022-11-30T09:37:26.789Z,20.80
2022-11-30T09:39:55.014Z,22.45
2022-11-30T09:42:34.833Z,28.27
2022-11-30T09:45:15.023Z,21.73
2022-11-30T09:48:23.055Z,23.00
2022-11-30T09:50:53.480Z,20.88
2022-11-30T09:53:30.180Z,22.75
2022-11-30T09:56:00.282Z,24.15
2022-11-30T09:58:39.628Z,23.35
2022-11-30T10:01:18.748Z,23.65
2022-11-30T10:03:47.834Z,23.42
2022-11-30T10:06:25.573Z,24.77
2022-11-30T10:09:27.402Z,27.33
2022-11-30T10:12:05.635Z,26.05
2022-11-30T10:15:12.466Z,27.08
2022-11-30T10:17:54.253Z,23.33
2022-11-30T10:20:53.390Z,24.73
2022-11-30T10:23:38.064Z,24.02
2022-11-30T10:26:10.625Z,22.77
2022-11-30T10:28:52.443Z,24.80
2022-11-30T10:31:22.990Z,28.60
2022-11-30T10:33:55.700Z,26.00
2022-11-30T10:36:30.927Z,27.85
2022-11-30T10:39:03.823Z,23.75
2022-11-30T10:41:43.166Z,29.73
2022-11-30T10:44:17.045Z,24.85
2022-11-30T10:46:58.384Z,26.20
2022-11-30T10:49:30.764Z,31.05
2022-11-30T10:52:04.720Z,26.42
2022-11-30T10:54:33.500Z,23.75
2022-11-30T10:57:05.600Z,30.92
2022-11-30T10:59:42.467Z,28.33
2022-11-30T11:02:42.705Z,27.77
2022-11-30T11:05:20.194Z,30.85
2022-11-30T11:08:02.737Z,28.70
2022-11-30T11:10:37.728Z,31.52
2022-11-30T11:13:06.621Z,27.48
2022-11-30T11:15:36.357Z,35.53
2022-11-30T11:18:25.675Z,28.85
2022-11-30T11:21:07.139Z,29.55
2022-11-30T11:23:39.571Z,30.60
2022-11-30T11:26:17.306Z,35.28
2022-11-30T11:28:49.939Z,30.90
2022-11-30T11:31:26.380Z,29.23
2022-11-30T11:33:55.696Z,29.20
2022-11-30T11:36:36.792Z,31.25
2022-11-30T11:39:26.700Z,28.48
2022-11-30T11:41:55.578Z,26.30
2022-11-30T11:44:28.054Z,27.58
2022-11-30T11:46:59.224Z,28.25
2022-11-30T11:49:30.237Z,26.52
2022-11-30T11:52:06.502Z,29.60
2022-11-30T11:54:40.902Z,25.95
2022-11-30T11:57:14.259Z,25.42
2022-11-30T11:59:51.939Z,28.33
2022-11-30T12:02:28.937Z,33.83
2022-11-30T12:05:00.728Z,27.80
2022-11-30T12:07:36.657Z,25.88
2022-11-30T12:10:50.474Z,27.08
2022-11-30T12:13:16.412Z,28.13
2022-11-30T12:16:00.198Z,24.35
2022-11-30T12:18:37.155Z,25.02
2022-11-30T12:21:11.868Z,24.80
2022-11-30T12:24:21.860Z,22.80
2022-11-30T12:26:56.800Z,24.73
2022-11-30T12:29:27.209Z,22.65
2022-11-30T12:32:18.168Z,25.35
2022-11-30T12:35:05.035Z,17.27
2022-11-30T12:37:47.714Z,18.70
2022-11-30T12:40:32.856Z,19.02
2022-11-30T12:43:16.298Z,21.50
2022-11-30T12:45:46.368Z,21.77
2022-11-30T12:48:29.650Z,19.25
2022-11-30T12:51:16.781Z,21.60
2022-11-30T12:53:53.437Z,23.35
2022-11-30T12:56:36.091Z,21.40
2022-11-30T12:59:17.825Z,21.60
2022-11-30T13:02:05.646Z,21.08
2022-11-30T13:04:43.347Z,23.95
2022-11-30T13:07:23.165Z,21.58
2022-11-30T13:09:57.442Z,21.93
2022-11-30T13:12:35.937Z,23.73
2022-11-30T13:15:15.864Z,26.15
2022-11-30T13:17:45.363Z,23.33
2022-11-30T13:20:23.356Z,25.02
2022-11-30T13:22:57.698Z,27.52
2022-11-30T13:26:06.433Z,26.73
2022-11-30T13:28:33.298Z,24.88
2022-11-30T13:31:07.195Z,24.40
2022-11-30T13:33:45.058Z,23.20
2022-11-30T13:36:32.266Z,24.55
2022-11-30T13:39:28.855Z,25.75
2022-11-30T13:42:34.306Z,27.17
2022-11-30T13:45:33.286Z,24.00
2022-11-30T13:48:20.734Z,24.42
2022-11-30T13:50:50.379Z,24.30
2022-11-30T13:53:34.059Z,23.13
2022-11-30T13:56:06.626Z,24.48
2022-11-30T13:58:36.537Z,22.40
2022-11-30T14:01:26.176Z,25.98
2022-11-30T14:04:32.999Z,25.85
2022-11-30T14:07:01.674Z,22.90
2022-11-30T14:10:00.346Z,25.20
2022-11-30T14:13:03.321Z,23.83
2022-11-30T14:15:56.266Z,26.17
2022-11-30T14:18:40.320Z,26.15
2022-11-30T14:21:21.215Z,29.13
2022-11-30T14:23:57.026Z,28.90
2022-11-30T14:26:34.154Z,33.10
2022-11-30T14:29:12.126Z,31.33
2022-11-30T14:31:50.986Z,28.40
2022-11-30T14:34:24.719Z,32.63
2022-11-30T14:36:57.705Z,31.92
2022-11-30T14:39:29.662Z,35.75
2022-11-30T14:41:57.950Z,36.10
2022-11-30T14:44:26.283Z,35.45
2022-11-30T14:46:54.614Z,36.05
2022-11-30T14:49:25.649Z,35.78
2022-11-30T14:52:02.006Z,38.83
2022-11-30T14:54:51.050Z,40.72
2022-11-30T14:57:30.468Z,37.75
2022-11-30T14:59:58.898Z,36.35
2022-11-30T15:02:34.212Z,38.15
2022-11-30T15:05:05.233Z,38.97
2022-11-30T15:07:34.145Z,33.83
2022-11-30T15:10:06.876Z,36.55
2022-11-30T15:12:36.495Z,33.10
2022-11-30T15:15:09.089Z,31.58
2022-11-30T15:17:52.175Z,33.85
2022-11-30T15:20:29.752Z,35.00
2022-11-30T15:23:01.802Z,33.40
2022-11-30T15:25:41.486Z,36.42
2022-11-30T15:28:15.041Z,34.63
2022-11-30T15:30:45.909Z,36.83
2022-11-30T15:33:20.269Z,35.30
2022-11-30T15:36:18.680Z,34.05
2022-11-30T15:38:43.353Z,35.13
2022-11-30T15:41:20.220Z,38.75
2022-11-30T15:43:54.229Z,34.83
2022-11-30T15:46:32.835Z,35.40
2022-11-30T15:49:18.759Z,35.88
2022-11-30T15:52:00.536Z,37.83
2022-11-30T15:54:49.378Z,35.55
2022-11-30T15:57:18.679Z,38.97
2022-11-30T16:00:07.374Z,39.70
2022-11-30T16:02:38.517Z,40.47
2022-11-30T16:05:26.850Z,39.22
2022-11-30T16:08:00.039Z,42.25
2022-11-30T16:10:34.982Z,39.95
2022-11-30T16:13:04.224Z,42.60
2022-11-30T16:15:36.002Z,41.95
2022-11-30T16:18:17.782Z,41.45
2022-11-30T16:20:49.342Z,44.50
2022-11-30T16:23:19.974Z,44.92
2022-11-30T16:25:50.776Z,43.90
2022-11-30T16:30:49.433Z,41.70
2022-11-30T16:33:19.929Z,42.10
2022-11-30T16:35:55.979Z,43.15
2022-11-30T16:38:26.263Z,45.47
2022-11-30T16:40:55.731Z,40.22
2022-11-30T16:43:26.123Z,43.30
2022-11-30T16:45:54.534Z,41.72
2022-11-30T16:48:22.806Z,41.00
2022-11-30T16:50:51.231Z,41.75
2022-11-30T16:53:19.542Z,45.00
2022-11-30T16:55:49.270Z,45.17
2022-11-30T16:58:17.714Z,45.05
2022-11-30T17:00:46.017Z,48.10
2022-11-30T17:03:22.384Z,50.08
2022-11-30T17:05:51.046Z,49.42
2022-11-30T17:08:19.364Z,50.35
2022-11-30T17:10:53.088Z,53.95
2022-11-30T17:13:22.223Z,63.33
2022-11-30T17:15:51.228Z,56.13
2022-11-30T17:18:19.817Z,52.28
2022-11-30T17:20:48.078Z,66.57
2022-11-30T17:23:16.344Z,60.58
2022-11-30T17:25:44.761Z,54.25
2022-11-30T17:28:14.353Z,52.25
2022-11-30T17:30:42.726Z,54.33
2022-11-30T17:33:11.102Z,59.45
2022-11-30T17:35:40.192Z,58.65
2022-11-30T17:38:08.664Z,63.83
2022-11-30T17:40:37.092Z,54.58
2022-11-30T17:43:05.348Z,86.63
2022-11-30T17:45:35.201Z,65.95
2022-11-30T17:48:03.545Z,67.60
2022-11-30T17:50:31.853Z,60.50
2022-11-30T17:53:00.182Z,57.08
2022-11-30T17:55:28.470Z,56.10
2022-11-30T17:57:56.768Z,56.63
2022-11-30T18:00:26.333Z,53.53
2022-11-30T18:02:56.073Z,56.10
2022-11-30T18:05:24.409Z,59.93
2022-11-30T18:07:52.733Z,60.13
2022-11-30T18:10:21.048Z,56.38
2022-11-30T18:12:49.363Z,51.72
2022-11-30T18:15:18.042Z,53.25
2022-11-30T18:17:46.334Z,55.45
2022-11-30T18:20:16.385Z,53.00
2022-11-30T18:22:45.187Z,51.75
2022-11-30T18:25:15.503Z,49.05
2022-11-30T18:27:44.447Z,51.20
2022-11-30T18:30:13.835Z,50.25
2022-11-30T18:32:42.220Z,75.78
2022-11-30T18:35:11.355Z,68.95
2022-11-30T18:37:40.986Z,55.75
2022-11-30T18:40:10.870Z,53.10
2022-11-30T18:42:39.199Z,55.30
2022-11-30T18:45:09.069Z,52.60
2022-11-30T18:47:37.332Z,51.78
2022-11-30T18:50:06.979Z,51.92
2022-11-30T18:52:35.256Z,49.58
2022-11-30T18:55:05.105Z,52.70
2022-11-30T18:57:33.497Z,56.03
2022-11-30T19:00:01.798Z,55.80
2022-11-30T19:02:30.319Z,52.85
2022-11-30T19:04:58.750Z,54.08
2022-11-30T19:07:27.151Z,55.10
2022-11-30T19:09:55.701Z,54.65
2022-11-30T19:12:25.525Z,51.17
2022-11-30T19:14:54.199Z,52.00
2022-11-30T19:17:22.772Z,53.03
2022-11-30T19:19:51.142Z,49.75
2022-11-30T19:22:19.441Z,54.17
2022-11-30T19:24:48.254Z,51.58
2022-11-30T19:27:16.710Z,49.78
2022-11-30T19:29:46.430Z,52.67
2022-11-30T19:32:14.878Z,54.28
2022-11-30T19:34:43.098Z,52.95
2022-11-30T19:37:11.386Z,51.20
2022-11-30T19:39:39.726Z,48.67
2022-11-30T19:42:08.037Z,52.92
2022-11-30T19:44:36.497Z,50.65
2022-11-30T19:47:06.279Z,51.30
2022-11-30T19:49:34.613Z,49.43
2022-11-30T19:52:03.315Z,54.05
2022-11-30T19:54:31.710Z,53.97
2022-11-30T19:56:59.947Z,55.10
2022-11-30T19:59:28.357Z,57.97
2022-11-30T20:01:56.721Z,52.85
2022-11-30T20:04:26.562Z,59.25
2022-11-30T20:06:55.105Z,54.80
2022-11-30T20:09:23.746Z,54.50
2022-11-30T20:11:54.750Z,57.60
2022-11-30T20:14:23.310Z,55.40
2022-11-30T20:16:52.987Z,53.80
2022-11-30T20:19:21.375Z,56.28
2022-11-30T20:21:51.229Z,50.45
2022-11-30T20:24:19.803Z,54.17
2022-11-30T20:26:48.680Z,57.13
2022-11-30T20:29:19.000Z,58.10
2022-11-30T20:31:49.305Z,52.45
2022-11-30T20:34:18.464Z,51.50
2022-11-30T20:36:47.016Z,48.85
2022-11-30T20:39:17.261Z,51.25
2022-11-30T20:41:45.815Z,51.50
2022-11-30T20:44:16.130Z,49.78
2022-11-30T20:46:45.091Z,53.03
2022-11-30T20:49:19.050Z,54.45
2022-11-30T20:51:47.749Z,50.80
2022-11-30T20:54:18.099Z,51.47
2022-11-30T20:56:50.889Z,48.88
2022-11-30T20:59:23.839Z,52.47
2022-11-30T21:01:52.329Z,53.60
2022-11-30T21:04:21.176Z,52.47
2022-11-30T21:06:49.648Z,52.53
2022-11-30T21:09:20.812Z,51.92
2022-11-30T21:11:50.224Z,50.38
2022-11-30T21:14:18.759Z,48.72
2022-11-30T21:16:47.163Z,50.20
2022-11-30T21:19:16.793Z,49.33
2022-11-30T21:21:45.118Z,54.35
2022-11-30T21:24:13.714Z,48.78
2022-11-30T21:26:44.277Z,50.50
2022-11-30T21:29:15.208Z,51.40
2022-11-30T21:31:43.979Z,53.13
2022-11-30T21:34:12.410Z,46.72
2022-11-30T21:36:40.954Z,50.38
2022-11-30T21:39:09.849Z,51.22
2022-11-30T21:41:40.643Z,49.85
2022-11-30T21:46:45.554Z,49.85
2022-11-30T21:49:14.592Z,52.25
2022-11-30T21:51:43.848Z,50.92
2022-11-30T21:54:14.016Z,53.20
2022-11-30T21:56:44.696Z,49.45
2022-11-30T22:01:45.465Z,52.58
2022-11-30T22:04:15.556Z,50.50
2022-11-30T22:06:44.674Z,52.20
2022-11-30T22:09:18.351Z,53.72
2022-11-30T22:11:47.079Z,53.05
2022-11-30T22:14:18.036Z,54.67
2022-11-30T22:16:47.103Z,51.85
2022-11-30T22:19:15.682Z,52.20
2022-11-30T22:21:49.769Z,54.67
2022-11-30T22:24:18.686Z,52.38
2022-11-30T22:26:48.992Z,53.45
2022-11-30T22:29:22.233Z,50.70
2022-11-30T22:31:53.104Z,48.30
2022-11-30T22:34:21.975Z,52.45
2022-11-30T22:36:50.338Z,53.58
2022-11-30T22:39:21.598Z,53.13
2022-11-30T22:41:55.548Z,54.35
2022-11-30T22:44:26.439Z,52.15
2022-11-30T22:46:54.800Z,52.80
2022-11-30T22:49:23.193Z,55.15
2022-11-30T22:51:52.004Z,58.95
2022-11-30T22:54:20.543Z,53.85
2022-11-30T22:56:48.910Z,55.85
2022-11-30T22:59:17.590Z,58.53
2022-11-30T23:01:48.758Z,58.22
2022-11-30T23:04:19.712Z,57.40
2022-11-30T23:06:49.611Z,54.97
2022-11-30T23:09:21.306Z,58.77
2022-11-30T23:11:50.501Z,56.72
2022-11-30T23:14:19.176Z,53.85
2022-11-30T23:16:49.074Z,61.40
2022-11-30T23:19:18.196Z,55.70
2022-11-30T23:21:46.533Z,60.42
2022-11-30T23:24:17.318Z,58.53
2022-11-30T23:26:46.414Z,58.22
2022-11-30T23:29:17.171Z,59.63
2022-11-30T23:31:46.391Z,58.13
2022-11-30T23:34:18.411Z,58.15
2022-11-30T23:36:47.173Z,60.10
2022-11-30T23:39:18.416Z,54.10
2022-11-30T23:41:46.879Z,56.95
2022-11-30T23:44:15.250Z,57.58
2022-11-30T23:46:43.740Z,58.38
2022-11-30T23:49:15.276Z,58.60
2022-11-30T23:51:43.757Z,60.25
2022-11-30T23:54:12.117Z,61.55
2022-11-30T23:56:40.322Z,58.88
2022-11-30T23:59:08.573Z,59.42
